sensor_id;sensor_type;location;lat;lon;timestamp;pressure;altitude;pressure_sealevel;temperature;humidity
35129;BME280;21301;43.626;10.580;2024-02-21T00:00:47;102430.41;;;6.93;100.00
35129;BME280;21301;43.626;10.580;2024-02-21T00:03:13;102431.19;;;6.95;100.00
35129;BME280;21301;43.626;10.580;2024-02-21T00:05:39;102424.81;;;6.77;100.00
35129;BME280;21301;43.626;10.580;2024-02-21T00:08:05;102428.38;;;6.74;100.00
35129;BME280;21301;43.626;10.580;2024-02-21T00:10:32;102430.28;;;6.69;100.00
35129;BME280;21301;43.626;10.580;2024-02-21T00:12:58;102431.44;;;6.60;100.00
35129;BME280;21301;43.626;10.580;2024-02-21T00:15:27;102424.66;;;6.55;100.00
35129;BME280;21301;43.626;10.580;2024-02-21T00:17:52;102419.53;;;6.52;100.00
35129;BME280;21301;43.626;10.580;2024-02-21T00:20:18;102424.91;;;6.47;100.00
35129;BME280;21301;43.626;10.580;2024-02-21T00:22:45;102417.84;;;6.49;100.00
35129;BME280;21301;43.626;10.580;2024-02-21T00:25:10;102418.66;;;6.51;100.00
35129;BME280;21301;43.626;10.580;2024-02-21T00:27:36;102414.31;;;6.52;100.00
35129;BME280;21301;43.626;10.580;2024-02-21T00:30:03;102408.16;;;6.53;100.00
35129;BME280;21301;43.626;10.580;2024-02-21T00:32:30;102415.03;;;6.55;100.00
35129;BME280;21301;43.626;10.580;2024-02-21T00:34:56;102410.66;;;6.56;100.00
35129;BME280;21301;43.626;10.580;2024-02-21T00:37:24;102402.72;;;6.59;100.00
35129;BME280;21301;43.626;10.580;2024-02-21T00:39:49;102406.13;;;6.61;100.00
35129;BME280;21301;43.626;10.580;2024-02-21T00:42:16;102401.78;;;6.61;100.00
35129;BME280;21301;43.626;10.580;2024-02-21T00:44:44;102399.25;;;6.58;100.00
35129;BME280;21301;43.626;10.580;2024-02-21T00:47:10;102396.59;;;6.60;100.00
35129;BME280;21301;43.626;10.580;2024-02-21T00:49:35;102387.75;;;6.64;100.00
35129;BME280;21301;43.626;10.580;2024-02-21T00:52:02;102399.06;;;6.65;100.00
35129;BME280;21301;43.626;10.580;2024-02-21T00:54:27;102392.25;;;6.59;100.00
35129;BME280;21301;43.626;10.580;2024-02-21T00:56:53;102394.16;;;6.54;100.00
35129;BME280;21301;43.626;10.580;2024-02-21T00:59:20;102391.53;;;6.55;100.00
35129;BME280;21301;43.626;10.580;2024-02-21T01:01:45;102390.03;;;6.47;100.00
35129;BME280;21301;43.626;10.580;2024-02-21T01:04:11;102385.91;;;6.39;100.00
35129;BME280;21301;43.626;10.580;2024-02-21T01:06:37;102385.50;;;6.25;100.00
35129;BME280;21301;43.626;10.580;2024-02-21T01:09:03;102384.72;;;6.23;100.00
35129;BME280;21301;43.626;10.580;2024-02-21T01:11:29;102383.06;;;6.21;100.00
35129;BME280;21301;43.626;10.580;2024-02-21T01:13:55;102386.31;;;6.27;100.00
35129;BME280;21301;43.626;10.580;2024-02-21T01:16:21;102379.28;;;6.29;100.00
35129;BME280;21301;43.626;10.580;2024-02-21T01:18:46;102381.19;;;6.24;100.00
35129;BME280;21301;43.626;10.580;2024-02-21T01:21:12;102374.28;;;6.23;100.00
35129;BME280;21301;43.626;10.580;2024-02-21T01:23:37;102375.44;;;6.13;100.00
35129;BME280;21301;43.626;10.580;2024-02-21T01:26:03;102374.63;;;6.11;100.00
35129;BME280;21301;43.626;10.580;2024-02-21T01:28:30;102380.59;;;6.16;100.00
35129;BME280;21301;43.626;10.580;2024-02-21T01:30:58;102375.44;;;6.13;100.00
35129;BME280;21301;43.626;10.580;2024-02-21T01:33:24;102372.75;;;6.16;100.00
35129;BME280;21301;43.626;10.580;2024-02-21T01:35:50;102379.66;;;6.17;100.00
35129;BME280;21301;43.626;10.580;2024-02-21T01:38:16;102380.44;;;6.21;100.00
35129;BME280;21301;43.626;10.580;2024-02-21T01:40:41;102380.50;;;6.17;100.00
35129;BME280;21301;43.626;10.580;2024-02-21T01:43:20;102382.00;;;6.26;100.00
35129;BME280;21301;43.626;10.580;2024-02-21T01:45:49;102388.75;;;6.33;100.00
35129;BME280;21301;43.626;10.580;2024-02-21T01:48:19;102385.31;;;6.31;100.00
35129;BME280;21301;43.626;10.580;2024-02-21T01:50:47;102376.56;;;6.32;100.00
35129;BME280;21301;43.626;10.580;2024-02-21T01:53:17;102381.19;;;6.24;100.00
35129;BME280;21301;43.626;10.580;2024-02-21T01:55:47;102381.47;;;6.15;100.00
35129;BME280;21301;43.626;10.580;2024-02-21T01:58:14;102373.19;;;6.01;100.00
35129;BME280;21301;43.626;10.580;2024-02-21T02:00:44;102374.31;;;5.92;100.00
35129;BME280;21301;43.626;10.580;2024-02-21T02:03:12;102377.13;;;5.84;100.00
35129;BME280;21301;43.626;10.580;2024-02-21T02:05:49;102373.66;;;5.85;100.00
35129;BME280;21301;43.626;10.580;2024-02-21T02:08:16;102376.94;;;5.92;100.00
35129;BME280;21301;43.626;10.580;2024-02-21T02:10:42;102380.34;;;5.94;100.00
35129;BME280;21301;43.626;10.580;2024-02-21T02:13:08;102379.72;;;5.86;100.00
35129;BME280;21301;43.626;10.580;2024-02-21T02:15:52;102383.53;;;5.74;100.00
35129;BME280;21301;43.626;10.580;2024-02-21T02:18:19;102389.69;;;5.71;100.00
35129;BME280;21301;43.626;10.580;2024-02-21T02:20:45;102379.47;;;5.34;100.00
35129;BME280;21301;43.626;10.580;2024-02-21T02:25:39;102387.56;;;5.54;100.00
35129;BME280;21301;43.626;10.580;2024-02-21T02:28:08;102393.47;;;5.61;100.00
35129;BME280;21301;43.626;10.580;2024-02-21T02:30:34;102394.47;;;5.57;100.00
35129;BME280;21301;43.626;10.580;2024-02-21T02:33:02;102395.25;;;5.61;100.00
35129;BME280;21301;43.626;10.580;2024-02-21T02:35:28;102388.88;;;5.69;100.00
35129;BME280;21301;43.626;10.580;2024-02-21T02:37:54;102381.13;;;5.68;100.00
35129;BME280;21301;43.626;10.580;2024-02-21T02:40:19;102388.06;;;5.67;100.00
35129;BME280;21301;43.626;10.580;2024-02-21T02:42:45;102379.28;;;5.70;100.00
35129;BME280;21301;43.626;10.580;2024-02-21T02:45:12;102385.47;;;5.67;100.00
35129;BME280;21301;43.626;10.580;2024-02-21T02:47:39;102383.47;;;5.46;100.00
35129;BME280;21301;43.626;10.580;2024-02-21T02:50:06;102381.63;;;5.49;100.00
35129;BME280;21301;43.626;10.580;2024-02-21T02:52:32;102381.16;;;5.66;100.00
35129;BME280;21301;43.626;10.580;2024-02-21T02:54:57;102384.56;;;5.68;100.00
35129;BME280;21301;43.626;10.580;2024-02-21T02:57:23;102378.41;;;5.71;100.00
35129;BME280;21301;43.626;10.580;2024-02-21T02:59:52;102381.38;;;5.88;100.00
35129;BME280;21301;43.626;10.580;2024-02-21T03:02:18;102381.09;;;5.99;100.00
35129;BME280;21301;43.626;10.580;2024-02-21T03:04:44;102391.47;;;6.01;100.00
35129;BME280;21301;43.626;10.580;2024-02-21T03:07:10;102383.53;;;6.04;100.00
35129;BME280;21301;43.626;10.580;2024-02-21T03:09:38;102382.63;;;6.06;100.00
35129;BME280;21301;43.626;10.580;2024-02-21T03:12:05;102383.28;;;5.83;100.00
35129;BME280;21301;43.626;10.580;2024-02-21T03:14:31;102382.47;;;5.81;100.00
35129;BME280;21301;43.626;10.580;2024-02-21T03:16:58;102383.88;;;5.62;100.00
35129;BME280;21301;43.626;10.580;2024-02-21T03:19:24;102382.25;;;5.58;100.00
35129;BME280;21301;43.626;10.580;2024-02-21T03:21:50;102381.84;;;5.42;100.00
35129;BME280;21301;43.626;10.580;2024-02-21T03:24:16;102381.31;;;5.29;100.00
35129;BME280;21301;43.626;10.580;2024-02-21T03:26:42;102380.59;;;5.24;100.00
35129;BME280;21301;43.626;10.580;2024-02-21T03:29:07;102385.03;;;5.20;100.00
35129;BME280;21301;43.626;10.580;2024-02-21T03:31:34;102385.81;;;5.24;100.00
35129;BME280;21301;43.626;10.580;2024-02-21T03:34:00;102385.16;;;5.16;100.00
35129;BME280;21301;43.626;10.580;2024-02-21T03:36:27;102386.22;;;5.08;100.00
35129;BME280;21301;43.626;10.580;2024-02-21T03:38:54;102401.03;;;5.08;100.00
35129;BME280;21301;43.626;10.580;2024-02-21T03:41:20;102388.72;;;5.13;100.00
35129;BME280;21301;43.626;10.580;2024-02-21T03:43:46;102383.72;;;5.05;100.00
35129;BME280;21301;43.626;10.580;2024-02-21T03:46:13;102390.81;;;4.99;100.00
35129;BME280;21301;43.626;10.580;2024-02-21T03:48:39;102394.59;;;4.87;100.00
35129;BME280;21301;43.626;10.580;2024-02-21T03:51:07;102398.34;;;4.39;100.00
35129;BME280;21301;43.626;10.580;2024-02-21T03:53:33;102399.38;;;4.32;100.00
35129;BME280;21301;43.626;10.580;2024-02-21T03:56:01;102405.53;;;4.65;100.00
35129;BME280;21301;43.626;10.580;2024-02-21T03:58:28;102398.34;;;4.77;100.00
35129;BME280;21301;43.626;10.580;2024-02-21T04:00:54;102395.41;;;4.89;100.00
35129;BME280;21301;43.626;10.580;2024-02-21T04:03:19;102400.84;;;4.80;100.00
35129;BME280;21301;43.626;10.580;2024-02-21T04:05:45;102402.56;;;4.81;100.00
35129;BME280;21301;43.626;10.580;2024-02-21T04:08:11;102408.06;;;4.68;100.00
35129;BME280;21301;43.626;10.580;2024-02-21T04:10:36;102417.22;;;4.49;100.00
35129;BME280;21301;43.626;10.580;2024-02-21T04:13:03;102410.41;;;4.45;100.00
35129;BME280;21301;43.626;10.580;2024-02-21T04:15:29;102411.34;;;4.41;100.00
35129;BME280;21301;43.626;10.580;2024-02-21T04:17:54;102412.31;;;4.35;100.00
35129;BME280;21301;43.626;10.580;2024-02-21T04:20:20;102421.72;;;4.42;100.00
35129;BME280;21301;43.626;10.580;2024-02-21T04:22:46;102416.56;;;4.41;100.00
35129;BME280;21301;43.626;10.580;2024-02-21T04:25:12;102417.75;;;4.26;100.00
35129;BME280;21301;43.626;10.580;2024-02-21T04:27:39;102414.66;;;4.09;100.00
35129;BME280;21301;43.626;10.580;2024-02-21T04:30:06;102424.94;;;4.16;100.00
35129;BME280;21301;43.626;10.580;2024-02-21T04:32:32;102419.09;;;4.05;100.00
35129;BME280;21301;43.626;10.580;2024-02-21T04:34:57;102420.69;;;4.11;100.00
35129;BME280;21301;43.626;10.580;2024-02-21T04:37:23;102415.19;;;4.24;100.00
35129;BME280;21301;43.626;10.580;2024-02-21T04:39:50;102419.38;;;4.32;100.00
35129;BME280;21301;43.626;10.580;2024-02-21T04:42:17;102428.03;;;4.32;100.00
35129;BME280;21301;43.626;10.580;2024-02-21T04:44:43;102431.00;;;4.54;100.00
35129;BME280;21301;43.626;10.580;2024-02-21T04:47:08;102427.84;;;4.77;100.00
35129;BME280;21301;43.626;10.580;2024-02-21T04:49:34;102425.22;;;4.79;100.00
35129;BME280;21301;43.626;10.580;2024-02-21T04:52:01;102423.03;;;4.60;100.00
35129;BME280;21301;43.626;10.580;2024-02-21T04:54:26;102424.16;;;4.50;100.00
35129;BME280;21301;43.626;10.580;2024-02-21T04:56:52;102414.19;;;4.30;100.00
35129;BME280;21301;43.626;10.580;2024-02-21T04:59:18;102420.50;;;4.20;100.00
35129;BME280;21301;43.626;10.580;2024-02-21T05:01:43;102416.28;;;4.14;100.00
35129;BME280;21301;43.626;10.580;2024-02-21T05:04:09;102413.06;;;4.01;100.00
35129;BME280;21301;43.626;10.580;2024-02-21T05:06:39;102416.66;;;3.97;100.00
35129;BME280;21301;43.626;10.580;2024-02-21T05:09:05;102415.22;;;3.82;100.00
35129;BME280;21301;43.626;10.580;2024-02-21T05:11:31;102419.66;;;3.77;100.00
35129;BME280;21301;43.626;10.580;2024-02-21T05:13:56;102422.25;;;3.77;100.00
35129;BME280;21301;43.626;10.580;2024-02-21T05:16:22;102423.03;;;3.82;100.00
35129;BME280;21301;43.626;10.580;2024-02-21T05:18:48;102419.50;;;3.85;100.00
35129;BME280;21301;43.626;10.580;2024-02-21T05:21:13;102419.19;;;4.00;100.00
35129;BME280;21301;43.626;10.580;2024-02-21T05:23:39;102427.34;;;4.24;100.00
35129;BME280;21301;43.626;10.580;2024-02-21T05:26:06;102413.88;;;4.44;100.00
35129;BME280;21301;43.626;10.580;2024-02-21T05:28:32;102410.59;;;4.36;100.00
35129;BME280;21301;43.626;10.580;2024-02-21T05:30:57;102414.88;;;4.38;100.00
35129;BME280;21301;43.626;10.580;2024-02-21T05:33:23;102415.09;;;4.27;100.00
35129;BME280;21301;43.626;10.580;2024-02-21T05:35:49;102424.28;;;4.05;100.00
35129;BME280;21301;43.626;10.580;2024-02-21T05:38:15;102426.00;;;4.06;100.00
35129;BME280;21301;43.626;10.580;2024-02-21T05:40:41;102432.09;;;4.05;100.00
35129;BME280;21301;43.626;10.580;2024-02-21T05:43:08;102429.66;;;3.97;100.00
35129;BME280;21301;43.626;10.580;2024-02-21T05:45:34;102434.25;;;3.84;100.00
35129;BME280;21301;43.626;10.580;2024-02-21T05:47:59;102431.72;;;3.80;100.00
35129;BME280;21301;43.626;10.580;2024-02-21T05:50:25;102434.63;;;3.66;100.00
35129;BME280;21301;43.626;10.580;2024-02-21T05:52:54;102448.50;;;3.67;100.00
35129;BME280;21301;43.626;10.580;2024-02-21T05:55:21;102438.25;;;3.59;100.00
35129;BME280;21301;43.626;10.580;2024-02-21T05:57:47;102440.09;;;3.52;100.00
35129;BME280;21301;43.626;10.580;2024-02-21T06:00:13;102434.97;;;3.48;100.00
35129;BME280;21301;43.626;10.580;2024-02-21T06:02:39;102426.44;;;3.41;100.00
35129;BME280;21301;43.626;10.580;2024-02-21T06:05:06;102433.50;;;3.34;100.00
35129;BME280;21301;43.626;10.580;2024-02-21T06:07:33;102429.13;;;3.36;100.00
35129;BME280;21301;43.626;10.580;2024-02-21T06:10:01;102435.06;;;3.43;100.00
35129;BME280;21301;43.626;10.580;2024-02-21T06:12:27;102433.44;;;3.37;100.00
35129;BME280;21301;43.626;10.580;2024-02-21T06:14:53;102437.78;;;3.37;100.00
35129;BME280;21301;43.626;10.580;2024-02-21T06:17:19;102443.06;;;3.32;100.00
35129;BME280;21301;43.626;10.580;2024-02-21T06:19:44;102438.56;;;3.40;100.00
35129;BME280;21301;43.626;10.580;2024-02-21T06:22:11;102441.94;;;3.46;100.00
35129;BME280;21301;43.626;10.580;2024-02-21T06:24:37;102438.34;;;3.53;100.00
35129;BME280;21301;43.626;10.580;2024-02-21T06:27:05;102444.22;;;3.62;100.00
35129;BME280;21301;43.626;10.580;2024-02-21T06:29:34;102435.34;;;3.73;100.00
35129;BME280;21301;43.626;10.580;2024-02-21T06:32:01;102446.47;;;3.82;100.00
35129;BME280;21301;43.626;10.580;2024-02-21T06:34:27;102454.25;;;3.82;100.00
35129;BME280;21301;43.626;10.580;2024-02-21T06:36:52;102454.09;;;3.90;100.00
35129;BME280;21301;43.626;10.580;2024-02-21T06:39:18;102460.06;;;3.95;100.00
35129;BME280;21301;43.626;10.580;2024-02-21T06:41:44;102456.38;;;4.05;100.00
35129;BME280;21301;43.626;10.580;2024-02-21T06:44:10;102463.63;;;4.33;100.00
35129;BME280;21301;43.626;10.580;2024-02-21T06:46:36;102454.00;;;5.43;100.00
35129;BME280;21301;43.626;10.580;2024-02-21T06:49:02;102465.09;;;6.98;100.00
35129;BME280;21301;43.626;10.580;2024-02-21T06:51:29;102463.47;;;7.45;100.00
35129;BME280;21301;43.626;10.580;2024-02-21T06:53:55;102455.53;;;8.19;100.00
35129;BME280;21301;43.626;10.580;2024-02-21T06:56:23;102454.34;;;8.94;100.00
35129;BME280;21301;43.626;10.580;2024-02-21T06:58:55;102459.69;;;9.93;100.00
35129;BME280;21301;43.626;10.580;2024-02-21T07:01:21;102467.34;;;10.55;100.00
35129;BME280;21301;43.626;10.580;2024-02-21T07:03:47;102467.97;;;10.96;100.00
35129;BME280;21301;43.626;10.580;2024-02-21T07:06:13;102475.00;;;10.96;100.00
35129;BME280;21301;43.626;10.580;2024-02-21T07:08:38;102476.72;;;11.14;100.00
35129;BME280;21301;43.626;10.580;2024-02-21T07:11:04;102475.16;;;11.62;100.00
35129;BME280;21301;43.626;10.580;2024-02-21T07:13:30;102474.09;;;12.31;100.00
35129;BME280;21301;43.626;10.580;2024-02-21T07:15:56;102463.94;;;13.32;100.00
35129;BME280;21301;43.626;10.580;2024-02-21T07:18:22;102473.44;;;12.90;100.00
35129;BME280;21301;43.626;10.580;2024-02-21T07:20:47;102464.41;;;13.08;97.62
35129;BME280;21301;43.626;10.580;2024-02-21T07:23:13;102476.16;;;12.88;92.74
35129;BME280;21301;43.626;10.580;2024-02-21T07:25:39;102476.97;;;12.58;87.15
35129;BME280;21301;43.626;10.580;2024-02-21T07:28:05;102477.91;;;13.04;85.76
35129;BME280;21301;43.626;10.580;2024-02-21T07:30:31;102470.59;;;13.23;81.40
35129;BME280;21301;43.626;10.580;2024-02-21T07:32:57;102478.97;;;13.46;78.78
35129;BME280;21301;43.626;10.580;2024-02-21T07:35:24;102470.56;;;13.39;76.10
35129;BME280;21301;43.626;10.580;2024-02-21T07:37:49;102466.69;;;12.84;74.36
35129;BME280;21301;43.626;10.580;2024-02-21T07:40:16;102477.69;;;12.76;77.17
35129;BME280;21301;43.626;10.580;2024-02-21T07:42:42;102477.16;;;12.40;78.41
35129;BME280;21301;43.626;10.580;2024-02-21T07:45:08;102481.34;;;12.44;81.56
35129;BME280;21301;43.626;10.580;2024-02-21T07:47:34;102480.44;;;12.43;83.54
35129;BME280;21301;43.626;10.580;2024-02-21T07:50:04;102477.47;;;12.65;82.96
35129;BME280;21301;43.626;10.580;2024-02-21T07:52:29;102475.13;;;12.91;82.70
35129;BME280;21301;43.626;10.580;2024-02-21T07:54:55;102487.25;;;12.15;84.13
35129;BME280;21301;43.626;10.580;2024-02-21T07:57:21;102479.41;;;12.77;86.14
35129;BME280;21301;43.626;10.580;2024-02-21T07:59:47;102485.50;;;12.94;84.88
35129;BME280;21301;43.626;10.580;2024-02-21T08:02:16;102489.63;;;13.14;83.00
35129;BME280;21301;43.626;10.580;2024-02-21T08:04:42;102492.78;;;12.74;82.80
35129;BME280;21301;43.626;10.580;2024-02-21T08:07:09;102494.00;;;12.37;84.47
35129;BME280;21301;43.626;10.580;2024-02-21T08:09:35;102486.16;;;12.51;87.01
35129;BME280;21301;43.626;10.580;2024-02-21T08:12:02;102480.47;;;12.59;88.72
35129;BME280;21301;43.626;10.580;2024-02-21T08:14:27;102474.72;;;12.67;88.00
35129;BME280;21301;43.626;10.580;2024-02-21T08:16:53;102466.84;;;12.35;90.21
35129;BME280;21301;43.626;10.580;2024-02-21T08:19:20;102466.03;;;13.41;100.00
35129;BME280;21301;43.626;10.580;2024-02-21T08:21:45;102467.41;;;14.33;100.00
35129;BME280;21301;43.626;10.580;2024-02-21T08:24:14;102470.00;;;14.61;100.00
35129;BME280;21301;43.626;10.580;2024-02-21T08:26:41;102473.03;;;14.82;100.00
35129;BME280;21301;43.626;10.580;2024-02-21T08:29:07;102468.78;;;14.80;100.00
35129;BME280;21301;43.626;10.580;2024-02-21T08:31:34;102473.44;;;14.76;100.00
35129;BME280;21301;43.626;10.580;2024-02-21T08:34:00;102467.44;;;14.87;100.00
35129;BME280;21301;43.626;10.580;2024-02-21T08:36:33;102475.34;;;15.27;100.00
35129;BME280;21301;43.626;10.580;2024-02-21T08:39:00;102472.81;;;15.38;100.00
35129;BME280;21301;43.626;10.580;2024-02-21T08:41:26;102476.63;;;15.34;97.39
35129;BME280;21301;43.626;10.580;2024-02-21T08:43:52;102483.22;;;14.61;88.93
35129;BME280;21301;43.626;10.580;2024-02-21T08:46:22;102487.91;;;14.43;93.04
35129;BME280;21301;43.626;10.580;2024-02-21T08:48:50;102492.97;;;15.28;93.25
35129;BME280;21301;43.626;10.580;2024-02-21T08:51:19;102485.00;;;14.88;85.97
35129;BME280;21301;43.626;10.580;2024-02-21T08:53:45;102497.25;;;14.76;85.28
35129;BME280;21301;43.626;10.580;2024-02-21T08:56:11;102495.66;;;14.74;83.96
35129;BME280;21301;43.626;10.580;2024-02-21T08:58:39;102484.38;;;15.50;83.13
35129;BME280;21301;43.626;10.580;2024-02-21T09:01:05;102492.44;;;15.87;80.54
35129;BME280;21301;43.626;10.580;2024-02-21T09:03:36;102490.97;;;15.70;77.81
35129;BME280;21301;43.626;10.580;2024-02-21T09:06:01;102486.88;;;16.15;78.04
35129;BME280;21301;43.626;10.580;2024-02-21T09:08:27;102495.31;;;15.96;75.72
35129;BME280;21301;43.626;10.580;2024-02-21T09:10:53;102493.38;;;16.48;75.79
35129;BME280;21301;43.626;10.580;2024-02-21T09:13:18;102488.66;;;16.65;75.56
35129;BME280;21301;43.626;10.580;2024-02-21T09:15:44;102486.75;;;17.02;72.28
35129;BME280;21301;43.626;10.580;2024-02-21T09:18:10;102490.69;;;16.24;69.70
35129;BME280;21301;43.626;10.580;2024-02-21T09:20:35;102494.56;;;15.43;69.03
35129;BME280;21301;43.626;10.580;2024-02-21T09:23:01;102493.66;;;15.17;71.11
35129;BME280;21301;43.626;10.580;2024-02-21T09:25:27;102491.13;;;15.16;68.68
35129;BME280;21301;43.626;10.580;2024-02-21T09:27:54;102495.25;;;15.07;67.83
35129;BME280;21301;43.626;10.580;2024-02-21T09:30:20;102496.09;;;15.07;69.02
35129;BME280;21301;43.626;10.580;2024-02-21T09:32:46;102483.88;;;15.70;67.95
35129;BME280;21301;43.626;10.580;2024-02-21T09:35:12;102480.78;;;15.89;66.56
35129;BME280;21301;43.626;10.580;2024-02-21T09:37:38;102474.72;;;16.00;65.46
35129;BME280;21301;43.626;10.580;2024-02-21T09:40:05;102481.41;;;15.67;65.87
35129;BME280;21301;43.626;10.580;2024-02-21T09:42:41;102485.00;;;15.53;65.39
35129;BME280;21301;43.626;10.580;2024-02-21T09:45:25;102486.19;;;15.49;63.90
35129;BME280;21301;43.626;10.580;2024-02-21T09:48:04;102481.91;;;15.34;63.21
35129;BME280;21301;43.626;10.580;2024-02-21T09:50:34;102483.41;;;15.38;66.54
35129;BME280;21301;43.626;10.580;2024-02-21T09:53:02;102489.13;;;16.09;65.60
35129;BME280;21301;43.626;10.580;2024-02-21T09:55:29;102481.38;;;16.43;63.19
35129;BME280;21301;43.626;10.580;2024-02-21T09:57:56;102472.75;;;16.52;60.29
35129;BME280;21301;43.626;10.580;2024-02-21T10:00:23;102479.09;;;16.62;59.31
35129;BME280;21301;43.626;10.580;2024-02-21T10:02:49;102465.66;;;16.76;59.83
35129;BME280;21301;43.626;10.580;2024-02-21T10:05:16;102462.06;;;17.24;58.70
35129;BME280;21301;43.626;10.580;2024-02-21T10:07:43;102464.25;;;17.30;57.41
35129;BME280;21301;43.626;10.580;2024-02-21T10:10:09;102462.19;;;17.34;56.81
35129;BME280;21301;43.626;10.580;2024-02-21T10:12:47;102464.97;;;17.43;56.73
35129;BME280;21301;43.626;10.580;2024-02-21T10:15:12;102468.19;;;18.05;55.38
35129;BME280;21301;43.626;10.580;2024-02-21T10:17:38;102461.22;;;17.23;54.84
35129;BME280;21301;43.626;10.580;2024-02-21T10:20:10;102455.44;;;17.41;53.43
35129;BME280;21301;43.626;10.580;2024-02-21T10:22:37;102458.38;;;17.49;53.47
35129;BME280;21301;43.626;10.580;2024-02-21T10:25:09;102459.25;;;17.83;51.44
35129;BME280;21301;43.626;10.580;2024-02-21T10:27:34;102450.22;;;18.18;52.63
35129;BME280;21301;43.626;10.580;2024-02-21T10:30:01;102436.81;;;18.20;50.53
35129;BME280;21301;43.626;10.580;2024-02-21T10:32:29;102443.03;;;18.41;50.22
35129;BME280;21301;43.626;10.580;2024-02-21T10:35:03;102446.56;;;18.74;48.01
35129;BME280;21301;43.626;10.580;2024-02-21T10:37:31;102439.06;;;18.79;50.79
35129;BME280;21301;43.626;10.580;2024-02-21T10:39:57;102440.00;;;18.78;51.08
35129;BME280;21301;43.626;10.580;2024-02-21T10:42:29;102433.34;;;18.84;49.36
35129;BME280;21301;43.626;10.580;2024-02-21T10:45:00;102433.97;;;18.97;49.18
35129;BME280;21301;43.626;10.580;2024-02-21T10:47:28;102434.81;;;18.77;50.49
35129;BME280;21301;43.626;10.580;2024-02-21T10:50:02;102438.41;;;18.87;50.69
35129;BME280;21301;43.626;10.580;2024-02-21T10:55:38;102434.19;;;18.84;46.79
35129;BME280;21301;43.626;10.580;2024-02-21T10:58:08;102418.44;;;19.02;49.74
35129;BME280;21301;43.626;10.580;2024-02-21T11:00:35;102416.53;;;19.35;49.22
35129;BME280;21301;43.626;10.580;2024-02-21T11:03:02;102411.41;;;19.84;47.71
35129;BME280;21301;43.626;10.580;2024-02-21T11:05:29;102402.34;;;19.65;46.43
35129;BME280;21301;43.626;10.580;2024-02-21T11:07:55;102397.47;;;19.70;47.05
35129;BME280;21301;43.626;10.580;2024-02-21T11:10:24;102400.34;;;19.98;45.31
35129;BME280;21301;43.626;10.580;2024-02-21T11:13:05;102400.19;;;19.28;45.30
35129;BME280;21301;43.626;10.580;2024-02-21T11:15:30;102399.75;;;19.54;45.71
35129;BME280;21301;43.626;10.580;2024-02-21T11:17:56;102388.75;;;19.68;45.82
35129;BME280;21301;43.626;10.580;2024-02-21T11:20:35;102393.56;;;19.94;42.54
35129;BME280;21301;43.626;10.580;2024-02-21T11:23:01;102389.53;;;20.09;43.68
35129;BME280;21301;43.626;10.580;2024-02-21T11:25:28;102383.50;;;20.07;43.64
35129;BME280;21301;43.626;10.580;2024-02-21T11:28:01;102378.28;;;20.25;41.05
35129;BME280;21301;43.626;10.580;2024-02-21T11:30:30;102377.03;;;20.39;43.07
35129;BME280;21301;43.626;10.580;2024-02-21T11:33:00;102374.53;;;20.18;41.81
35129;BME280;21301;43.626;10.580;2024-02-21T11:35:31;102370.84;;;19.59;42.81
35129;BME280;21301;43.626;10.580;2024-02-21T11:38:11;102369.84;;;19.60;40.64
35129;BME280;21301;43.626;10.580;2024-02-21T11:40:40;102369.84;;;20.00;42.75
35129;BME280;21301;43.626;10.580;2024-02-21T11:43:07;102359.75;;;20.04;42.07
35129;BME280;21301;43.626;10.580;2024-02-21T11:45:32;102352.84;;;20.02;41.34
35129;BME280;21301;43.626;10.580;2024-02-21T11:47:59;102353.19;;;19.27;42.15
35129;BME280;21301;43.626;10.580;2024-02-21T11:50:26;102350.03;;;19.53;42.56
35129;BME280;21301;43.626;10.580;2024-02-21T11:52:54;102342.88;;;20.04;41.94
35129;BME280;21301;43.626;10.580;2024-02-21T11:55:21;102340.22;;;20.42;41.18
35129;BME280;21301;43.626;10.580;2024-02-21T11:57:50;102338.38;;;20.33;40.93
35129;BME280;21301;43.626;10.580;2024-02-21T12:00:19;102346.53;;;20.03;41.15
35129;BME280;21301;43.626;10.580;2024-02-21T12:02:50;102333.59;;;20.27;41.75
35129;BME280;21301;43.626;10.580;2024-02-21T12:05:16;102324.75;;;20.27;40.09
35129;BME280;21301;43.626;10.580;2024-02-21T12:07:44;102325.75;;;19.96;40.52
35129;BME280;21301;43.626;10.580;2024-02-21T12:10:10;102321.53;;;20.23;41.26
35129;BME280;21301;43.626;10.580;2024-02-21T12:12:37;102315.47;;;20.31;40.28
35129;BME280;21301;43.626;10.580;2024-02-21T12:15:05;102309.09;;;20.51;40.30
35129;BME280;21301;43.626;10.580;2024-02-21T12:17:39;102302.81;;;20.62;40.24
35129;BME280;21301;43.626;10.580;2024-02-21T12:20:05;102299.13;;;20.43;39.39
35129;BME280;21301;43.626;10.580;2024-02-21T12:22:43;102297.75;;;20.30;37.60
35129;BME280;21301;43.626;10.580;2024-02-21T12:25:23;102302.78;;;19.74;37.52
35129;BME280;21301;43.626;10.580;2024-02-21T12:27:51;102307.31;;;20.13;39.74
35129;BME280;21301;43.626;10.580;2024-02-21T12:30:17;102295.44;;;19.67;39.63
35129;BME280;21301;43.626;10.580;2024-02-21T12:32:47;102287.44;;;19.67;39.27
35129;BME280;21301;43.626;10.580;2024-02-21T12:35:15;102283.97;;;19.86;40.14
35129;BME280;21301;43.626;10.580;2024-02-21T12:37:40;102278.50;;;20.26;39.43
35129;BME280;21301;43.626;10.580;2024-02-21T12:40:08;102284.03;;;19.45;38.94
35129;BME280;21301;43.626;10.580;2024-02-21T12:42:34;102279.31;;;19.18;39.01
35129;BME280;21301;43.626;10.580;2024-02-21T12:45:02;102269.13;;;19.43;39.35